createdAt,value
2019-04-06T00:00:44.356Z,96.26
2019-04-06T00:01:45.715Z,96.55
2019-04-06T00:02:46.776Z,96.74
2019-04-06T00:03:47.538Z,96.64
2019-04-06T00:04:48.324Z,97.31
2019-04-06T00:05:49.362Z,97.6
2019-04-06T00:06:50.317Z,95.89
2019-04-06T00:07:51.540Z,96.17
2019-04-06T00:08:52.327Z,95.98
2019-04-06T00:09:53.410Z,96.36
2019-04-06T00:10:56.202Z,95.79
2019-04-06T00:11:57.256Z,96.36
2019-04-06T00:12:58.380Z,96.45
2019-04-06T00:13:59.330Z,96.45
2019-04-06T00:15:00.086Z,97.22
2019-04-06T00:16:00.136Z,97.41
2019-04-06T00:17:00.640Z,97.69
2019-04-06T00:18:01.781Z,97.78
2019-04-06T00:19:02.382Z,97.69
2019-04-06T00:20:03.059Z,97.31
2019-04-06T00:21:03.738Z,97.12
2019-04-06T00:22:04.510Z,96.83
2019-04-06T00:23:05.043Z,96.64
2019-04-06T00:24:05.544Z,96.45
2019-04-06T00:25:06.589Z,96.45
2019-04-06T00:26:07.457Z,96.83
2019-04-06T00:27:08.452Z,97.41
2019-04-06T00:28:08.558Z,97.12
2019-04-06T00:29:09.317Z,97.12
2019-04-06T00:30:09.793Z,97.22
2019-04-06T00:31:10.826Z,97.41
2019-04-06T00:32:11.667Z,97.78
2019-04-06T00:33:12.153Z,98.07
2019-04-06T00:34:12.905Z,97.69
2019-04-06T00:35:13.378Z,96.93
2019-04-06T00:36:14.414Z,96.93
2019-04-06T00:37:15.023Z,96.69
2019-04-06T00:38:16.358Z,96.93
2019-04-06T00:39:16.196Z,96.78
2019-04-06T00:40:17.234Z,96.93
2019-04-06T00:41:18.284Z,97.45
2019-04-06T00:42:19.039Z,96.78
2019-04-06T00:43:19.372Z,96.31
2019-04-06T00:44:20.496Z,96.88
2019-04-06T00:45:20.855Z,96.5
2019-04-06T00:46:21.414Z,96.03
2019-04-06T00:47:22.204Z,96.12
2019-04-06T00:48:22.680Z,95.07
2019-04-06T00:49:22.924Z,94.7
2019-04-06T00:50:23.678Z,94.13
2019-04-06T00:51:24.159Z,93.84
2019-04-06T00:52:24.530Z,93.94
2019-04-06T00:53:25.360Z,93.37
2019-04-06T00:54:26.814Z,92.9
2019-04-06T00:55:27.402Z,92.61
2019-04-06T00:56:28.004Z,93.27
2019-04-06T00:57:28.800Z,93.65
2019-04-06T00:58:29.612Z,94.23
2019-04-06T00:59:29.882Z,93.94
2019-04-06T01:00:30.383Z,94.03
2019-04-06T01:01:30.583Z,93.18
2019-04-06T01:02:31.915Z,93.56
2019-04-06T01:03:32.670Z,93.08
2019-04-06T01:04:33.206Z,92.8
2019-04-06T01:05:34.063Z,92.99
2019-04-06T01:06:34.257Z,92.94
2019-04-06T01:07:34.935Z,92.09
2019-04-06T01:08:35.413Z,92.09
2019-04-06T01:09:36.727Z,91.52
2019-04-06T01:10:36.989Z,91.05
2019-04-06T01:11:37.376Z,91.8
2019-04-06T01:12:38.128Z,91.8
2019-04-06T01:13:39.450Z,92.09
2019-04-06T01:14:39.924Z,93.08
2019-04-06T01:15:40.771Z,92.85
2019-04-06T01:16:42.002Z,93.32
2019-04-06T01:17:42.012Z,91.99
2019-04-06T01:18:43.108Z,92.18
2019-04-06T01:19:44.218Z,91.71
2019-04-06T01:20:45.025Z,91.99
2019-04-06T01:21:46.414Z,91.94
2019-04-06T01:22:46.723Z,92.18
2019-04-06T01:23:47.591Z,93.04
2019-04-06T01:24:47.401Z,93.18
2019-04-06T01:25:47.646Z,93.13
2019-04-06T01:26:47.936Z,93.41
2019-04-06T01:27:48.874Z,94.23
2019-04-06T01:28:49.098Z,93.8
2019-04-06T01:29:49.686Z,93.46
2019-04-06T01:30:50.730Z,94.32
2019-04-06T01:31:51.676Z,94.23
2019-04-06T01:32:53.080Z,94.32
2019-04-06T01:33:53.278Z,94.32
2019-04-06T01:34:54.019Z,94.98
2019-04-06T01:35:54.664Z,95.65
2019-04-06T01:36:54.415Z,95.46
2019-04-06T01:37:55.267Z,95.55
2019-04-06T01:38:56.448Z,94.51
2019-04-06T01:39:56.980Z,94.89
2019-04-06T01:40:57.213Z,94.42
2019-04-06T01:41:58.033Z,94.7
2019-04-06T01:42:58.820Z,93.8
2019-04-06T01:43:59.925Z,93.99
2019-04-06T01:45:00.804Z,92.66
2019-04-06T01:46:01.285Z,92.18
2019-04-06T01:47:02.042Z,91.99
2019-04-06T01:48:02.340Z,91.99
2019-04-06T01:49:03.447Z,91.52
2019-04-06T01:50:04.204Z,91.71
2019-04-06T01:51:04.648Z,91.99
2019-04-06T01:52:05.210Z,92.18
2019-04-06T01:53:06.192Z,91.24
2019-04-06T01:54:07.268Z,91.52
2019-04-06T01:55:07.838Z,91.71
2019-04-06T01:56:20.115Z,91.99
2019-04-06T01:57:20.036Z,91.14
2019-04-06T01:58:20.871Z,91.61
2019-04-06T01:59:21.622Z,91.8
2019-04-06T02:00:22.535Z,91.14
2019-04-06T02:01:23.404Z,91.14
2019-04-06T02:02:24.127Z,90.67
2019-04-06T02:03:24.564Z,90.29
2019-04-06T02:04:24.760Z,90.67
2019-04-06T02:05:25.554Z,90.29
2019-04-06T02:06:26.428Z,90.29
2019-04-06T02:07:27.290Z,90
2019-04-06T02:08:27.457Z,90.29
2019-04-06T02:09:27.652Z,90.29
2019-04-06T02:10:28.892Z,90.48
2019-04-06T02:11:29.685Z,89.81
2019-04-06T02:12:31.382Z,89.43
2019-04-06T02:13:31.576Z,89.48
2019-04-06T02:14:33.024Z,89.01
2019-04-06T02:15:33.523Z,88.16
2019-04-06T02:16:34.512Z,89.06
2019-04-06T02:17:36.129Z,88.73
2019-04-06T02:18:36.699Z,88.73
2019-04-06T02:19:37.217Z,88.68
2019-04-06T02:20:38.568Z,88.54
2019-04-06T02:21:39.179Z,88.77
2019-04-06T02:22:39.329Z,88.58
2019-04-06T02:23:40.141Z,89.25
2019-04-06T02:24:40.735Z,89.62
2019-04-06T02:25:41.277Z,89.62
2019-04-06T02:26:42.135Z,89.58
2019-04-06T02:27:42.778Z,89.34
2019-04-06T02:28:43.806Z,89.25
2019-04-06T02:29:44.405Z,89.62
2019-04-06T02:30:45.568Z,89.62
2019-04-06T02:31:46.779Z,90
2019-04-06T02:32:47.286Z,90.19
2019-04-06T02:33:47.993Z,90.19
2019-04-06T02:34:49.738Z,90.48
2019-04-06T02:35:49.522Z,90
2019-04-06T02:36:50.931Z,90.29
2019-04-06T02:37:51.841Z,89.62
2019-04-06T02:38:52.460Z,90
2019-04-06T02:39:52.499Z,90
2019-04-06T02:40:53.541Z,89.72
2019-04-06T02:41:54.689Z,89.29
2019-04-06T02:42:55.139Z,89.39
2019-04-06T02:43:55.610Z,89.29
2019-04-06T02:44:57.073Z,88.73
2019-04-06T02:45:57.639Z,88.35
2019-04-06T02:46:58.638Z,87.4
2019-04-06T02:47:59.986Z,87.02
2019-04-06T02:49:01.137Z,86.64
2019-04-06T02:50:02.812Z,86.55
2019-04-06T02:51:03.323Z,87.49
2019-04-06T02:52:03.744Z,86.83
2019-04-06T02:53:03.699Z,86.55
2019-04-06T02:54:04.020Z,86.35
2019-04-06T02:55:05.487Z,85.78
2019-04-06T02:56:06.104Z,86.16
2019-04-06T02:57:07.110Z,86.07
2019-04-06T02:58:08.074Z,86.74
2019-04-06T02:59:09.114Z,86.16
2019-04-06T03:00:10.207Z,86.35
2019-04-06T03:01:11.068Z,87.21
2019-04-06T03:02:11.809Z,87.12
2019-04-06T03:03:12.631Z,86.83
2019-04-06T03:04:13.483Z,86.74
2019-04-06T03:05:14.197Z,86.35
2019-04-06T03:06:14.474Z,86.74
2019-04-06T03:07:16.082Z,85.5
2019-04-06T03:08:17.296Z,85.88
2019-04-06T03:09:18.327Z,86.26
2019-04-06T03:10:19.162Z,85.5
2019-04-06T03:11:20.444Z,86.45
2019-04-06T03:12:20.864Z,87.02
2019-04-06T03:13:21.580Z,87.59
2019-04-06T03:14:22.316Z,87.3
2019-04-06T03:15:23.436Z,86.93
2019-04-06T03:16:24.884Z,86.64
2019-04-06T03:17:25.856Z,86.64
2019-04-06T03:18:26.240Z,86.16
2019-04-06T03:19:27.497Z,85.6
2019-04-06T03:20:28.942Z,85.78
2019-04-06T03:21:29.033Z,85.78
2019-04-06T03:22:29.097Z,85.97
2019-04-06T03:23:29.696Z,86.16
2019-04-06T03:24:30.132Z,86.35
2019-04-06T03:25:31.310Z,86.74
2019-04-06T03:26:31.828Z,87.49
2019-04-06T03:27:33.162Z,87.3
2019-04-06T03:28:34.012Z,87.02
2019-04-06T03:29:34.498Z,87.4
2019-04-06T03:30:35.697Z,87.97
2019-04-06T03:31:36.395Z,88.73
2019-04-06T03:32:37.492Z,89.29
2019-04-06T03:33:37.913Z,88.63
2019-04-06T03:34:39.105Z,89.01
2019-04-06T03:35:52.745Z,88.92
2019-04-06T03:36:50.831Z,89.01
2019-04-06T03:37:50.896Z,89.11
2019-04-06T03:38:51.841Z,89.01
2019-04-06T03:39:53.031Z,88.73
2019-04-06T03:40:53.605Z,88.54
2019-04-06T03:41:53.935Z,88.73
2019-04-06T03:42:54.338Z,88.16
2019-04-06T03:43:55.179Z,88.54
2019-04-06T03:44:56.465Z,88.16
2019-04-06T03:45:57.340Z,88.54
2019-04-06T03:46:57.918Z,88.16
2019-04-06T03:47:58.461Z,87.68
2019-04-06T03:48:59.197Z,87.12
2019-04-06T03:49:59.611Z,85.31
2019-04-06T03:51:01.027Z,84.94
2019-04-06T03:52:02.533Z,84.84
2019-04-06T03:53:03.292Z,84.74
2019-04-06T03:54:03.971Z,84.65
2019-04-06T03:55:04.887Z,84.65
2019-04-06T03:56:06.084Z,85.13
2019-04-06T03:57:17.891Z,85.41
2019-04-06T03:58:16.691Z,85.5
2019-04-06T03:59:17.935Z,85.6
2019-04-06T04:00:19.137Z,85.41
2019-04-06T04:01:19.991Z,85.69
2019-04-06T04:02:20.653Z,86.16
2019-04-06T04:03:21.443Z,86.45
2019-04-06T04:04:23.113Z,86.55
2019-04-06T04:05:23.506Z,86.45
2019-04-06T04:06:24.642Z,86.64
2019-04-06T04:07:24.603Z,86.93
2019-04-06T04:08:25.033Z,86.16
2019-04-06T04:09:25.104Z,86.35
2019-04-06T04:10:25.457Z,86.45
2019-04-06T04:11:26.049Z,86.74
2019-04-06T04:12:27.056Z,87.12
2019-04-06T04:13:27.534Z,87.49
2019-04-06T04:14:28.769Z,87.3
2019-04-06T04:15:29.745Z,86.55
2019-04-06T04:16:30.962Z,86.93
2019-04-06T04:17:31.413Z,87.02
2019-04-06T04:18:32.987Z,87.49
2019-04-06T04:19:33.809Z,87.21
2019-04-06T04:20:35.463Z,87.3
2019-04-06T04:21:35.775Z,87.49
2019-04-06T04:22:37.607Z,87.59
2019-04-06T04:23:38.187Z,87.49
2019-04-06T04:24:38.163Z,87.87
2019-04-06T04:25:38.904Z,87.87
2019-04-06T04:26:40.657Z,88.44
2019-04-06T04:27:41.255Z,88.54
2019-04-06T04:28:40.964Z,88.82
2019-04-06T04:29:41.852Z,88.25
2019-04-06T04:30:42.198Z,88.73
2019-04-06T04:31:42.953Z,88.73
2019-04-06T04:32:44.459Z,88.82
2019-04-06T04:33:45.132Z,87.77
2019-04-06T04:34:46.491Z,87.3
2019-04-06T04:35:47.252Z,87.3
2019-04-06T04:36:47.995Z,86.74
2019-04-06T04:37:48.834Z,86.35
2019-04-06T04:38:50.009Z,85.97
2019-04-06T04:39:51.143Z,86.35
2019-04-06T04:40:51.588Z,85.6
2019-04-06T04:41:52.071Z,85.46
2019-04-06T04:42:52.639Z,85.55
2019-04-06T04:43:53.233Z,85.84
2019-04-06T04:44:53.781Z,85.74
2019-04-06T04:45:55.518Z,86.12
2019-04-06T04:46:56.118Z,86.64
2019-04-06T04:47:57.350Z,86.74
2019-04-06T04:48:57.753Z,86.74
2019-04-06T04:49:59.211Z,87.07
2019-04-06T04:51:00.248Z,87.35
2019-04-06T04:52:02.030Z,87.54
2019-04-06T04:53:01.779Z,88.68
2019-04-06T04:54:02.467Z,88.73
2019-04-06T04:55:03.911Z,88.4
2019-04-06T04:56:04.251Z,88.54
2019-04-06T04:57:04.894Z,89.15
2019-04-06T04:58:05.749Z,88.92
2019-04-06T04:59:07.257Z,88.68
2019-04-06T05:00:07.345Z,88.02
2019-04-06T05:01:07.826Z,86.79
2019-04-06T05:02:08.250Z,87.16
2019-04-06T05:03:09.153Z,86.31
2019-04-06T05:04:10.568Z,86.5
2019-04-06T05:05:11.334Z,85.93
2019-04-06T05:06:11.540Z,86.22
2019-04-06T05:07:13.004Z,86.22
2019-04-06T05:08:12.916Z,86.69
2019-04-06T05:09:13.664Z,86.79
2019-04-06T05:10:14.850Z,86.31
2019-04-06T05:11:15.251Z,86.6
2019-04-06T05:12:16.055Z,87.16
2019-04-06T05:13:16.955Z,87.26
2019-04-06T05:14:17.946Z,88.3
2019-04-06T05:15:18.599Z,87.64
2019-04-06T05:16:19.501Z,88.4
2019-04-06T05:17:20.670Z,88.3
2019-04-06T05:18:22.042Z,88.78
2019-04-06T05:19:23.339Z,88.78
2019-04-06T05:20:24.944Z,88.3
2019-04-06T05:21:25.274Z,89.53
2019-04-06T05:22:26.429Z,89.06
2019-04-06T05:23:26.666Z,89.34
2019-04-06T05:24:27.153Z,89.25
2019-04-06T05:25:28.674Z,89.15
2019-04-06T05:26:39.654Z,88.59
2019-04-06T05:27:53.634Z,86.41
2019-04-06T05:28:50.884Z,86.22
2019-04-06T05:29:51.023Z,86.5
2019-04-06T05:30:51.937Z,86.41
2019-04-06T05:31:52.697Z,87.35
2019-04-06T05:32:53.710Z,88.68
2019-04-06T05:33:54.156Z,89.15
2019-04-06T05:34:54.920Z,88.87
2019-04-06T05:35:55.234Z,88.73
2019-04-06T05:36:55.861Z,89.11
2019-04-06T05:37:56.694Z,89.2
2019-04-06T05:38:57.751Z,88.82
2019-04-06T05:39:58.964Z,89.11
2019-04-06T05:41:00.147Z,90.15
2019-04-06T05:42:00.667Z,90.43
2019-04-06T05:43:01.504Z,91.09
2019-04-06T05:44:02.149Z,90.91
2019-04-06T05:45:03.562Z,90.72
2019-04-06T05:46:04.002Z,90.43
2019-04-06T05:47:04.767Z,90.15
2019-04-06T05:48:05.393Z,91.85
2019-04-06T05:49:06.434Z,90.62
2019-04-06T05:50:07.065Z,90.05
2019-04-06T05:51:07.315Z,90.72
2019-04-06T05:52:08.244Z,91.09
2019-04-06T05:53:09.005Z,91.19
2019-04-06T05:54:09.974Z,91.09
2019-04-06T05:55:10.744Z,91.66
2019-04-06T05:56:12.135Z,91
2019-04-06T05:57:12.907Z,91.95
2019-04-06T05:58:13.509Z,91.47
2019-04-06T05:59:14.597Z,91.47
2019-04-06T06:00:15.723Z,92.23
2019-04-06T06:01:16.306Z,92.99
2019-04-06T06:02:16.613Z,93.46
2019-04-06T06:03:17.501Z,94.42
2019-04-06T06:04:19.239Z,95.88
2019-04-06T06:05:20.136Z,95.36
2019-04-06T06:06:20.311Z,96.17
2019-04-06T06:07:20.667Z,96.08
2019-04-06T06:08:21.011Z,96.17
2019-04-06T06:09:21.579Z,96.45
2019-04-06T06:10:22.513Z,97.02
2019-04-06T06:11:23.512Z,96.26
2019-04-06T06:12:24.016Z,96.36
2019-04-06T06:13:25.492Z,96.36
2019-04-06T06:14:25.729Z,96.64
2019-04-06T06:15:26.048Z,97.59
2019-04-06T06:16:26.540Z,98.11
2019-04-06T06:17:27.329Z,98.49
2019-04-06T06:18:28.479Z,99.99
2019-04-06T06:19:28.916Z,99.44
2019-04-06T06:20:29.901Z,99.99
2019-04-06T06:21:30.709Z,99.2
2019-04-06T06:22:31.708Z,98.54
2019-04-06T06:23:33.155Z,97.88
2019-04-06T06:24:35.786Z,97.78
2019-04-06T06:25:36.766Z,97.83
2019-04-06T06:26:37.918Z,98.11
2019-04-06T06:27:38.349Z,99.99
2019-04-06T06:28:39.149Z,99.99
2019-04-06T06:29:40.161Z,99.99
2019-04-06T06:30:40.741Z,99.99
2019-04-06T06:31:41.251Z,99.99
2019-04-06T06:32:42.028Z,99.99
2019-04-06T06:33:43.325Z,99.99
2019-04-06T06:34:43.781Z,99.99
2019-04-06T06:35:44.714Z,99.99
2019-04-06T06:36:44.889Z,99.99
2019-04-06T06:37:45.121Z,99.75
2019-04-06T06:38:46.048Z,98.6
2019-04-06T06:39:47.537Z,98.89
2019-04-06T06:40:48.211Z,99.46
2019-04-06T06:41:49.767Z,97.99
2019-04-06T06:42:50.192Z,92.93
2019-04-06T06:43:50.693Z,91.07
2019-04-06T06:44:50.689Z,91.74
2019-04-06T06:45:51.680Z,88.88
2019-04-06T06:46:52.633Z,88.02
2019-04-06T06:47:52.772Z,91.74
2019-04-06T06:48:53.804Z,91.36
2019-04-06T06:49:54.291Z,92.69
2019-04-06T06:50:54.809Z,88.98
2019-04-06T06:51:55.197Z,89.17
2019-04-06T06:52:55.338Z,87.54
2019-04-06T06:53:55.964Z,89.74
2019-04-06T06:54:56.856Z,90.83
2019-04-06T06:55:58.269Z,89.12
2019-04-06T06:56:58.407Z,85.53
2019-04-06T06:57:59.579Z,81.81
2019-04-06T06:59:00.622Z,80.95
2019-04-06T07:00:01.111Z,79.46
2019-04-06T07:01:04.380Z,80.04
2019-04-06T07:02:04.386Z,77.21
2019-04-06T07:03:05.384Z,75.3
2019-04-06T07:04:06.857Z,73.99
2019-04-06T07:05:07.724Z,69.21
2019-04-06T07:06:09.055Z,68.58
2019-04-06T07:07:09.593Z,69.82
2019-04-06T07:08:10.377Z,69.44
2019-04-06T07:09:10.406Z,69.44
2019-04-06T07:10:10.854Z,69.15
2019-04-06T07:11:12.111Z,66.57
2019-04-06T07:12:12.236Z,66.76
2019-04-06T07:13:12.919Z,66.83
2019-04-06T07:14:14.169Z,69.21
2019-04-06T07:15:15.187Z,71.32
2019-04-06T07:16:15.902Z,67.05
2019-04-06T07:17:17.228Z,67.14
2019-04-06T07:18:17.140Z,65.26
2019-04-06T07:19:17.642Z,63.48
2019-04-06T07:20:18.737Z,61.31
2019-04-06T07:21:19.246Z,62.52
2019-04-06T07:22:20.438Z,62.71
2019-04-06T07:23:21.226Z,61.94
2019-04-06T07:24:21.529Z,59.97
2019-04-06T07:25:22.554Z,57.89
2019-04-06T07:26:23.134Z,56.38
2019-04-06T07:27:24.257Z,56.45
2019-04-06T07:28:39.773Z,57.06
2019-04-06T07:29:35.680Z,58.62
2019-04-06T07:30:37.071Z,59.11
2019-04-06T07:31:38.117Z,58.72
2019-04-06T07:32:37.974Z,59.3
2019-04-06T07:33:38.906Z,59.11
2019-04-06T07:34:39.308Z,59.58
2019-04-06T07:35:40.274Z,60.44
2019-04-06T07:36:40.945Z,60.25
2019-04-06T07:37:41.253Z,58.81
2019-04-06T07:38:41.788Z,59.87
2019-04-06T07:39:42.254Z,61.85
2019-04-06T07:40:43.538Z,64.98
2019-04-06T07:41:43.651Z,66
2019-04-06T07:42:44.991Z,67.05
2019-04-06T07:43:45.384Z,69.12
2019-04-06T07:44:45.603Z,69.79
2019-04-06T07:45:46.399Z,71.51
2019-04-06T07:46:46.507Z,75.01
2019-04-06T07:47:47.451Z,77.11
2019-04-06T07:48:48.664Z,79.36
2019-04-06T07:49:49.348Z,80.04
2019-04-06T07:50:50.818Z,82.29
2019-04-06T07:51:51.881Z,84.77
2019-04-06T07:52:52.223Z,86.3
2019-04-06T07:53:52.768Z,85.82
2019-04-06T07:54:53.622Z,85
2019-04-06T07:55:54.471Z,80.65
2019-04-06T07:56:55.571Z,74.66
2019-04-06T07:57:56.266Z,75.56
2019-04-06T07:58:56.884Z,74.22
2019-04-06T07:59:57.748Z,73.79
2019-04-06T08:00:58.250Z,73.21
2019-04-06T08:01:58.887Z,74.74
2019-04-06T08:02:59.365Z,76.5
2019-04-06T08:04:00.385Z,73.21
2019-04-06T08:05:01.142Z,74.74
2019-04-06T08:06:02.217Z,72.98
2019-04-06T08:07:02.976Z,74.13
2019-04-06T08:08:03.480Z,71.26
2019-04-06T08:09:04.281Z,71.45
2019-04-06T08:10:05.593Z,73.75
2019-04-06T08:11:06.268Z,74.41
2019-04-06T08:12:06.917Z,76.48
2019-04-06T08:13:07.317Z,77.06
2019-04-06T08:14:07.839Z,77.4
2019-04-06T08:15:08.823Z,74.09
2019-04-06T08:16:09.935Z,74.8
2019-04-06T08:17:10.923Z,74.61
2019-04-06T08:18:11.488Z,75.85
2019-04-06T08:19:12.582Z,72.98
2019-04-06T08:20:13.485Z,74.32
2019-04-06T08:21:14.152Z,75.14
2019-04-06T08:22:14.428Z,75.71
2019-04-06T08:23:15.908Z,77.11
2019-04-06T08:24:16.558Z,77.01
2019-04-06T08:25:17.182Z,73.8
2019-04-06T08:26:18.138Z,74.8
2019-04-06T08:27:19.209Z,73.11
2019-04-06T08:28:19.869Z,73.82
2019-04-06T08:29:21.424Z,66.64
2019-04-06T08:30:21.741Z,67.11
2019-04-06T08:31:22.390Z,67.79
2019-04-06T08:32:23.029Z,67.37
2019-04-06T08:33:24.422Z,67.66
2019-04-06T08:34:25.483Z,68.96
2019-04-06T08:35:27.813Z,69.44
2019-04-06T08:36:28.721Z,70.75
2019-04-06T08:37:29.579Z,70.4
2019-04-06T08:38:31.201Z,70.53
2019-04-06T08:39:32.284Z,66.54
2019-04-06T08:40:33.154Z,65.23
2019-04-06T08:41:33.313Z,63.83
2019-04-06T08:42:34.321Z,63.57
2019-04-06T08:43:34.827Z,64.72
2019-04-06T08:44:35.879Z,62.62
2019-04-06T08:45:36.591Z,61.66
2019-04-06T08:46:37.699Z,62.26
2019-04-06T08:47:38.252Z,61.56
2019-04-06T08:48:39.106Z,60.79
2019-04-06T08:49:39.594Z,61.37
2019-04-06T08:50:39.942Z,61.85
2019-04-06T08:51:39.891Z,61.56
2019-04-06T08:52:40.176Z,64.5
2019-04-06T08:53:41.364Z,61.72
2019-04-06T08:54:43.237Z,62.87
2019-04-06T08:55:43.601Z,63.51
2019-04-06T08:56:44.220Z,63.32
2019-04-06T08:57:45.243Z,63.6
2019-04-06T08:58:45.970Z,65.49
2019-04-06T08:59:47.180Z,67.34
2019-04-06T09:00:48.087Z,66.77
2019-04-06T09:01:48.168Z,67.21
2019-04-06T09:02:48.754Z,67.98
2019-04-06T09:03:49.474Z,68.04
2019-04-06T09:04:50.236Z,67.08
2019-04-06T09:05:50.188Z,68.36
2019-04-06T09:06:50.862Z,67.72
2019-04-06T09:07:51.521Z,63.64
2019-04-06T09:08:52.405Z,63.38
2019-04-06T09:09:53.766Z,61.88
2019-04-06T09:10:55.228Z,61.78
2019-04-06T09:11:55.632Z,60.79
2019-04-06T09:12:56.497Z,59.29
2019-04-06T09:13:57.117Z,59.58
2019-04-06T09:14:58.724Z,58.52
2019-04-06T09:16:00.069Z,59.29
2019-04-06T09:17:00.911Z,61.66
2019-04-06T09:18:01.455Z,60.92
2019-04-06T09:19:02.349Z,59.09
2019-04-06T09:20:03.411Z,57.85
2019-04-06T09:21:04.057Z,57.95
2019-04-06T09:22:04.995Z,59.77
2019-04-06T09:23:05.831Z,60.57
2019-04-06T09:24:05.759Z,62.07
2019-04-06T09:25:06.525Z,62.87
2019-04-06T09:26:07.768Z,60.19
2019-04-06T09:27:08.236Z,58.97
2019-04-06T09:28:09.017Z,58.71
2019-04-06T09:29:21.788Z,58.33
2019-04-06T09:29:25.598Z,59
2019-04-06T09:29:31.147Z,58.71
2019-04-06T09:30:30.541Z,58.87
2019-04-06T09:31:31.440Z,61.72
2019-04-06T09:32:31.955Z,60.99
2019-04-06T09:33:32.751Z,61.43
2019-04-06T09:34:33.891Z,62.17
2019-04-06T09:35:34.088Z,62.68
2019-04-06T09:36:35.377Z,61.34
2019-04-06T09:37:36.040Z,61.66
2019-04-06T09:38:36.062Z,63.09
2019-04-06T09:39:37.759Z,62.55
2019-04-06T09:40:37.769Z,60.82
2019-04-06T09:41:38.271Z,58.64
2019-04-06T09:42:38.792Z,59
2019-04-06T09:43:39.844Z,59.96
2019-04-06T09:44:40.550Z,59.99
2019-04-06T09:45:43.177Z,58.26
2019-04-06T09:46:43.840Z,59.19
2019-04-06T09:47:44.229Z,58.36
2019-04-06T09:48:45.553Z,59.32
2019-04-06T09:49:46.772Z,58.29
2019-04-06T09:50:47.175Z,58.51
2019-04-06T09:51:48.293Z,56.3
2019-04-06T09:52:48.520Z,53.92
2019-04-06T09:53:49.356Z,53.19
2019-04-06T09:54:50.374Z,53.98
2019-04-06T09:55:50.210Z,52.44
2019-04-06T09:56:51.290Z,53.23
2019-04-06T09:57:52.149Z,51.14
2019-04-06T09:58:53.490Z,50.85
2019-04-06T09:59:54.587Z,48.66
2019-04-06T10:00:54.930Z,49.22
2019-04-06T10:01:56.125Z,49.89
2019-04-06T10:02:56.876Z,50.21
2019-04-06T10:03:58.228Z,49.53
2019-04-06T10:04:58.365Z,47.44
2019-04-06T10:05:59.020Z,46.95
2019-04-06T10:07:00.047Z,48.08
2019-04-06T10:08:00.574Z,47.41
2019-04-06T10:09:02.006Z,46.93
2019-04-06T10:10:02.698Z,49.12
2019-04-06T10:11:03.492Z,48.95
2019-04-06T10:12:06.516Z,49.1
2019-04-06T10:13:06.401Z,48.23
2019-04-06T10:14:07.710Z,50.06
2019-04-06T10:15:09.376Z,49.96
2019-04-06T10:16:08.859Z,50.73
2019-04-06T10:17:10.014Z,50.63
2019-04-06T10:18:11.704Z,51.24
2019-04-06T10:19:12.479Z,52.25
2019-04-06T10:20:13.032Z,49.89
2019-04-06T10:21:13.981Z,49.6
2019-04-06T10:22:14.510Z,50.59
2019-04-06T10:23:15.148Z,48.11
2019-04-06T10:24:15.412Z,47.65
2019-04-06T10:25:16.429Z,45.84
2019-04-06T10:26:16.137Z,46.23
2019-04-06T10:27:17.252Z,46.23
2019-04-06T10:28:17.746Z,44.87
2019-04-06T10:29:17.666Z,46.49
2019-04-06T10:30:19.184Z,47.72
2019-04-06T10:31:20.935Z,50.13
2019-04-06T10:32:21.010Z,50.21
2019-04-06T10:33:22.303Z,50.69
2019-04-06T10:34:23.131Z,48.79
2019-04-06T10:35:24.419Z,46.37
2019-04-06T10:36:25.594Z,48.69
2019-04-06T10:37:26.703Z,47.85
2019-04-06T10:38:27.272Z,48.13
2019-04-06T10:39:27.994Z,46.69
2019-04-06T10:40:29.038Z,46.69
2019-04-06T10:41:29.744Z,47.87
2019-04-06T10:42:32.052Z,47.85
2019-04-06T10:43:33.071Z,47.72
2019-04-06T10:44:33.649Z,48.4
2019-04-06T10:45:34.791Z,46.88
2019-04-06T10:46:35.187Z,46.01
2019-04-06T10:47:36.306Z,47.65
2019-04-06T10:48:36.849Z,47.07
2019-04-06T10:49:37.975Z,46.3
2019-04-06T10:50:38.098Z,45.24
2019-04-06T10:51:41.865Z,46.47
2019-04-06T10:52:42.955Z,46.95
2019-04-06T10:53:43.592Z,45.62
2019-04-06T10:54:43.869Z,45.34
2019-04-06T10:55:44.471Z,45.04
2019-04-06T10:56:45.511Z,46.08
2019-04-06T10:57:46.087Z,46.86
2019-04-06T10:58:47.288Z,49.65
2019-04-06T11:00:04.106Z,49.46
2019-04-06T11:00:08.529Z,49.68
2019-04-06T11:01:10.081Z,46.59
2019-04-06T11:02:10.986Z,46.11
2019-04-06T11:03:10.730Z,45.92
2019-04-06T11:04:12.877Z,46.28
2019-04-06T11:05:12.881Z,45.79
2019-04-06T11:06:13.217Z,46.47
2019-04-06T11:07:14.700Z,47.05
2019-04-06T11:08:15.458Z,47.22
2019-04-06T11:09:15.282Z,48.64
2019-04-06T11:10:16.107Z,49
2019-04-06T11:11:21.256Z,50.04
2019-04-06T11:12:21.944Z,49.27
2019-04-06T11:13:22.920Z,48.88
2019-04-06T11:14:23.240Z,48.21
2019-04-06T11:15:24.050Z,49.84
2019-04-06T11:16:24.958Z,50.23
2019-04-06T11:17:25.783Z,50.54
2019-04-06T11:18:27.191Z,47.65
2019-04-06T11:19:27.527Z,49
2019-04-06T11:20:28.899Z,48.9
2019-04-06T11:21:29.382Z,49.41
2019-04-06T11:22:31.128Z,47.46
2019-04-06T11:23:31.433Z,48.02
2019-04-06T11:24:32.773Z,48.03
2019-04-06T11:25:32.819Z,48.13
2019-04-06T11:26:33.028Z,47.92
2019-04-06T11:27:33.896Z,50.04
2019-04-06T11:28:34.902Z,49.38
2019-04-06T11:29:35.417Z,48.93
2019-04-06T11:30:36.436Z,46.73
2019-04-06T11:31:37.265Z,46.55
2019-04-06T11:32:38.136Z,47
2019-04-06T11:33:38.571Z,48.25
2019-04-06T11:34:40.157Z,50.57
2019-04-06T11:35:40.626Z,48.66
2019-04-06T11:36:41.120Z,47.99
2019-04-06T11:37:41.474Z,47.82
2019-04-06T11:38:42.488Z,48.13
2019-04-06T11:39:43.765Z,48.33
2019-04-06T11:40:44.590Z,47.94
2019-04-06T11:41:45.238Z,47.85
2019-04-06T11:42:45.997Z,47.07
2019-04-06T11:43:46.542Z,48.23
2019-04-06T11:44:48.162Z,45.99
2019-04-06T11:45:49.618Z,45.21
2019-04-06T11:46:49.751Z,47.8
2019-04-06T11:47:49.952Z,47.24
2019-04-06T11:48:50.844Z,46.56
2019-04-06T11:49:51.821Z,46.73
2019-04-06T11:50:53.203Z,48.86
2019-04-06T11:51:54.034Z,49.29
2019-04-06T11:52:54.742Z,50.66
2019-04-06T11:53:55.792Z,50.18
2019-04-06T11:54:57.168Z,50.27
2019-04-06T11:55:57.215Z,50.37
2019-04-06T11:56:57.599Z,48.83
2019-04-06T11:57:58.978Z,47.7
2019-04-06T11:59:00.602Z,49.05
2019-04-06T12:00:00.550Z,49.53
2019-04-06T12:01:02.617Z,51.17
2019-04-06T12:02:04.062Z,51.46
2019-04-06T12:03:04.788Z,51.17
2019-04-06T12:04:06.366Z,47.31
2019-04-06T12:05:06.623Z,48.95
2019-04-06T12:06:07.488Z,46.37
2019-04-06T12:07:08.674Z,45.24
2019-04-06T12:08:10.394Z,45.43
2019-04-06T12:09:11.035Z,46.03
2019-04-06T12:10:12.582Z,44.2
2019-04-06T12:11:13.128Z,44.64
2019-04-06T12:12:13.142Z,46.93
2019-04-06T12:13:13.659Z,46.86
2019-04-06T12:14:14.473Z,46.56
2019-04-06T12:15:15.387Z,45.62
2019-04-06T12:16:15.714Z,45.14
2019-04-06T12:17:16.979Z,45.41
2019-04-06T12:18:19.647Z,44.83
2019-04-06T12:19:20.250Z,45.79
2019-04-06T12:20:21.255Z,49.19
2019-04-06T12:21:21.841Z,47.53
2019-04-06T12:22:21.929Z,45.03
2019-04-06T12:23:22.476Z,45
2019-04-06T12:24:23.868Z,45
2019-04-06T12:25:25.171Z,46.14
2019-04-06T12:26:26.067Z,46.62
2019-04-06T12:27:25.712Z,49.24
2019-04-06T12:28:26.355Z,49.73
2019-04-06T12:29:27.463Z,49.34
2019-04-06T12:30:40.199Z,46.28
2019-04-06T12:31:39.507Z,46.28
2019-04-06T12:32:39.985Z,44.46
2019-04-06T12:33:41.209Z,43.98
2019-04-06T12:34:41.845Z,45.14
2019-04-06T12:35:42.334Z,45.04
2019-04-06T12:36:43.121Z,43.48
2019-04-06T12:37:44.329Z,44.25
2019-04-06T12:38:45.067Z,41.77
2019-04-06T12:39:55.460Z,43.21
2019-04-06T12:40:56.791Z,41.86
2019-04-06T12:41:57.571Z,43.77
2019-04-06T12:42:58.065Z,43.31
2019-04-06T12:43:58.768Z,45.34
2019-04-06T12:45:00.167Z,43.31
2019-04-06T12:46:01.081Z,41.11
2019-04-06T12:47:02.182Z,42.75
2019-04-06T12:48:02.832Z,44.85
2019-04-06T12:49:03.232Z,43.21
2019-04-06T12:50:04.911Z,42.36
2019-04-06T12:51:05.423Z,43.04
2019-04-06T12:52:05.959Z,43.31
2019-04-06T12:53:07.062Z,40.82
2019-04-06T12:54:08.088Z,40.72
2019-04-06T12:55:08.517Z,42.94
2019-04-06T12:56:09.808Z,41.98
2019-04-06T12:57:09.952Z,41.6
2019-04-06T12:58:11.178Z,43.52
2019-04-06T12:59:11.028Z,40.92
2019-04-06T13:00:12.087Z,40.8
2019-04-06T13:00:55.049Z,41.75
2019-04-06T13:01:56.443Z,43.96
2019-04-06T13:02:56.216Z,45.77
2019-04-06T13:03:56.719Z,45
2019-04-06T13:04:57.306Z,44.83
2019-04-06T13:05:59.214Z,46.47